Station: Tindal  

  Atmospheric Gas Attenuation - ITU Rec 676-11   ----------------- dB/100km -----------------
Date Time Temp RH % AH g/m3 Dew Point Wind Direction Speed kph Gust kph Barometer mB Rainfall Since 9am 24GHz 47GHz 76GHz 122GHz 134GHz 241GHz
04/09 02:20 22 64 12.42 14.9 9 11 1015.4 0 27.2 29.7 50.7 133.6 137.1 474.7
04/09 02:10 22.5 61 12.18 14.6 6 7 1015.4 0 26.7 29.1 49.4 130.2 133.0 460.5
04/09 02:00 23.3 57 11.92 14.3 0 0 1015.4 0 26.1 28.4 47.9 126.1 128.2 444.0
04/09 01:50 23.7 55 11.76 14.1 0 0 1015.5 0 25.7 28.0 47.0 123.8 125.5 434.6
04/09 01:40 24.3 57 12.61 15.2 2 7 1015.6 0 27.5 29.2 50.0 131.8 135.6 469.7
04/09 01:30 24.1 57 12.47 15.1 7 11 1015.7 0 27.2 29.0 49.6 130.7 134.1 464.6
04/09 01:20 24 54 11.75 14.1 0 0 1015.7 0 25.7 27.9 46.8 123.3 124.9 432.6
04/09 01:10 24.1 53 11.6 13.9 9 9 1015.4 0 25.4 27.7 46.2 121.5 122.8 425.3
04/09 01:00 24 53 11.53 13.8 9 11 1015.4 0 25.2 27.6 45.9 121.0 122.1 422.7
04/09 00:50 23.8 53 11.4 13.6 7 9 1015.5 0 25.0 27.4 45.6 120.0 120.8 418.0
04/09 00:40 23.7 53 11.34 13.6 7 9 1015.6 0 24.9 27.4 45.4 119.5 120.2 415.9
04/09 00:30 23.7 52 11.12 13.3 9 11 1015.5 0 24.4 27.0 44.5 117.2 117.4 406.2
04/09 00:20 23.8 52 11.19 13.4 9 11 1015.6 0 24.5 27.1 44.8 117.8 118.1 408.8
04/09 00:08 23.8 52 11.19 13.4 7 9 1015.5 0 24.5 27.1 44.8 117.8 118.1 408.8
04/09 00:00 23.8 52 11.19 13.4 9 11 1015.5 0 24.5 27.1 44.8 117.8 118.1 408.8
03/09 23:50 23.9 51 11.03 13.2 11 11 1015.5 0 24.2 26.8 44.1 116.0 116.0 401.2
03/09 23:40 24.3 50 11.06 13.2 9 15 1015.5 0 24.2 26.8 44.0 115.7 115.8 400.5
03/09 23:30 24.2 50 11 13.1 11 13 1015.4 0 24.1 26.7 43.8 115.3 115.1 398.4
03/09 23:20 24.4 48 10.68 12.7 11 17 1015.4 0 23.4 26.2 42.5 111.8 110.9 383.5
03/09 23:10 24.5 48 10.74 12.8 13 15 1015.3 0 23.6 26.2 42.7 112.2 111.5 385.6
03/09 23:00 23.8 50 10.76 12.8 13 17 1015.3 0 23.6 26.4 43.1 113.4 112.7 389.9
03/09 22:50 23 53 10.89 12.9 13 15 1015.4 0 24.0 26.9 44.0 115.9 115.5 399.6
03/09 22:40 23.3 52 10.87 12.9 9 11 1015.2 0 23.9 26.8 43.8 115.2 114.8 397.1
03/09 22:30 23.6 52 11.06 13.2 9 11 1015.2 0 24.3 27.0 44.4 116.7 116.8 404.0
03/09 22:20 23.8 51 10.97 13.1 9 9 1015.2 0 24.1 26.8 43.9 115.5 115.3 399.0
03/09 22:10 24.2 49 10.78 12.8 9 13 1015.2 0 23.7 26.4 43.0 113.0 112.4 388.8
03/09 22:00 24.6 48 10.8 12.9 9 11 1015.1 0 23.7 26.3 42.8 112.7 112.1 387.7
03/09 21:50 24.7 48 10.86 13 9 13 1015.1 0 23.8 26.3 43.0 113.1 112.7 389.8
03/09 21:40 24.3 50 11.06 13.2 9 13 1015.1 0 24.2 26.7 44.0 115.7 115.7 400.4
03/09 21:30 24.6 49 11.03 13.2 11 13 1015 0 24.2 26.6 43.7 115.0 114.9 397.6
03/09 21:20 24.6 49 11.03 13.2 11 13 1014.9 0 24.2 26.6 43.7 114.9 114.9 397.5
03/09 21:10 24.5 49 10.97 13.1 9 11 1014.8 0 24.0 26.5 43.5 114.5 114.3 395.4
03/09 21:00 24.7 49 11.09 13.3 9 11 1014.7 0 24.3 26.7 43.8 115.4 115.5 399.6
03/09 20:50 24.9 48 10.99 13.1 9 9 1014.6 0 24.1 26.4 43.4 114.1 113.9 394.2
03/09 20:40 25 48 11.05 13.2 9 9 1014.4 0 24.2 26.5 43.5 114.5 114.5 396.2
03/09 20:30 25.4 46 10.83 12.9 9 11 1014.3 0 23.7 26.0 42.5 111.8 111.2 384.8
03/09 20:20 25.6 46 10.95 13.1 9 11 1014.2 0 23.9 26.2 42.8 112.7 112.4 389.0
03/09 20:10 26 44 10.71 12.8 9 11 1014.1 0 23.4 25.7 41.7 109.7 108.9 376.9
03/09 20:00 26.4 42 10.46 12.5 9 11 1014 0 22.9 25.2 40.6 106.8 105.4 364.5
03/09 19:50 26.9 41 10.49 12.5 9 11 1013.9 0 22.9 25.1 40.5 106.4 105.1 363.5
03/09 19:40 27.5 39 10.32 12.3 9 11 1013.8 0 22.5 24.7 39.5 104.0 102.3 353.8
03/09 19:30 27.8 39 10.49 12.6 9 13 1013.7 0 22.9 24.9 40.0 105.2 103.9 359.4
03/09 19:20 28.4 37 10.29 12.3 9 11 1013.5 0 22.4 24.4 39.0 102.5 100.8 348.7
03/09 19:10 28.8 35 9.95 11.8 9 13 1013.4 0 21.7 23.8 37.6 98.9 96.4 333.4
03/09 19:00 29.4 33 9.69 11.5 11 11 1013.3 0 21.1 23.3 36.5 95.8 92.8 320.8
03/09 18:50 29.8 32 9.6 11.3 11 13 1013.2 0 20.9 23.1 36.0 94.5 91.3 315.7
03/09 18:40 30.6 30 9.4 11.1 13 15 1013.1 0 20.5 22.6 35.0 91.8 88.3 305.0
03/09 18:30 31.2 29 9.38 11.1 11 15 1013 0 20.4 22.4 34.7 91.0 87.4 302.0
03/09 18:20 31.8 28 9.36 11 11 15 1012.9 0 20.3 22.3 34.3 90.2 86.5 299.1
03/09 18:10 32.4 26 8.97 10.4 9 13 1012.8 0 19.5 21.6 32.8 86.2 81.8 282.5
03/09 18:00 32.7 26 9.11 10.7 11 15 1012.8 0 19.8 21.7 33.2 87.1 83.0 286.6
03/09 17:50 32.8 25 8.81 10.2 13 20 1012.8 0 19.1 21.3 32.2 84.4 79.8 275.4
03/09 17:40 33.1 25 8.95 10.4 13 20 1012.7 0 19.4 21.4 32.5 85.3 80.9 279.4
03/09 17:30 33.3 25 9.05 10.6 13 19 1012.6 0 19.6 21.5 32.7 85.9 81.7 282.4
03/09 17:20 33.6 25 9.19 10.9 15 20 1012.6 0 19.9 21.6 33.1 86.8 82.9 286.4
03/09 17:10 33.7 24 8.87 10.3 13 17 1012.5 0 19.2 21.2 32.0 84.0 79.5 274.5
03/09 17:00 33.6 24 8.82 10.2 13 19 1012.5 0 19.1 21.1 31.9 83.7 79.1 273.0
03/09 16:50 34 24 9.01 10.6 7 17 1012.4 0 19.5 21.3 32.3 84.9 80.6 278.5
03/09 16:40 33.6 25 9.19 10.9 7 13 1012.5 0 19.9 21.6 33.1 86.8 82.9 286.4
03/09 16:30 33.9 24 8.96 10.5 13 22 1012.6 0 19.4 21.3 32.2 84.6 80.2 277.1
03/09 16:20 34 25 9.38 11.2 19 24 1012.5 0 20.3 21.8 33.5 88.0 84.4 291.9
03/09 16:10 34 25 9.38 11.2 9 15 1012.7 0 20.3 21.8 33.5 88.0 84.5 292.0
03/09 16:00 34 24 9.01 10.6 13 19 1012.8 0 19.5 21.3 32.4 84.9 80.7 278.6
03/09 15:50 34 24 9.01 10.6 11 20 1012.9 0 19.5 21.3 32.4 84.9 80.7 278.6
03/09 15:40 34.3 25 9.53 11.4 11 19 1013 0 20.5 21.9 33.9 88.9 85.7 296.4
03/09 15:30 34.2 25 9.48 11.4 9 20 1013.1 0 20.5 21.9 33.8 88.6 85.3 295.0
03/09 15:20 33.7 25 9.24 10.9 9 19 1013.2 0 20.0 21.7 33.2 87.2 83.3 288.0
03/09 15:10 34.3 26 9.91 12 11 22 1013.3 0 21.3 22.4 35.1 92.2 89.7 310.4
03/09 15:00 33.2 25 9 10.5 11 19 1013.4 0 19.5 21.5 32.7 85.7 81.4 281.1
03/09 14:50 33.8 26 9.66 11.6 9 17 1013.6 0 20.8 22.2 34.5 90.6 87.6 303.1
03/09 14:40 33.3 26 9.41 11.2 13 17 1013.7 0 20.3 22.0 33.9 89.1 85.6 295.8
03/09 14:30 33.4 27 9.82 11.9 17 28 1013.8 0 21.2 22.5 35.2 92.5 89.8 310.6
03/09 14:20 33.3 28 10.13 12.3 9 15 1013.8 0 21.8 22.9 36.2 95.3 93.2 322.5
03/09 14:10 33.1 27 9.67 11.6 9 15 1014 0 20.9 22.4 34.8 91.5 88.5 306.2
03/09 14:00 32.8 29 10.22 12.4 9 13 1014.2 0 22.0 23.2 36.8 96.7 94.8 328.0
03/09 13:50 32 29 9.79 11.7 7 19 1014.4 0 21.2 22.8 35.7 93.8 91.0 314.9
03/09 13:40 33.1 29 10.38 12.7 11 20 1014.5 0 22.3 23.3 37.2 97.7 96.2 332.9
03/09 13:30 32.6 29 10.11 12.3 15 26 1014.7 0 21.8 23.1 36.5 96.0 93.8 324.7
03/09 13:20 32.8 30 10.57 12.9 13 24 1014.8 0 22.7 23.7 38.0 99.8 98.6 341.5
03/09 13:10 32.5 29 10.06 12.2 9 19 1015 0 21.7 23.1 36.4 95.7 93.4 323.3
03/09 13:00 32 29 9.79 11.7 9 17 1015.1 0 21.2 22.9 35.7 93.9 91.1 315.0
03/09 12:50 32.4 29 10 12.1 11 20 1015.4 0 21.6 23.0 36.3 95.3 92.9 321.5
03/09 12:40 31.5 31 10.19 12.3 9 17 1015.6 0 22.0 23.5 37.3 98.0 96.1 332.4
03/09 12:30 32 31 10.47 12.8 13 20 1015.8 0 22.6 23.8 38.0 100.0 98.6 341.2
03/09 12:20 31.5 32 10.52 12.8 9 17 1016.1 0 22.7 24.0 38.4 101.1 99.8 345.3
03/09 12:10 31.4 32 10.47 12.7 9 15 1016.4 0 22.6 24.0 38.3 100.8 99.3 343.9
03/09 12:00 31.2 32 10.35 12.5 13 22 1016.6 0 22.4 23.9 38.0 99.9 98.3 340.1
03/09 11:50 31.7 32 10.63 13 9 22 1016.7 0 22.9 24.1 38.7 101.9 100.8 348.9
03/09 11:40 30.6 33 10.34 12.5 13 22 1016.9 0 22.4 24.0 38.3 100.6 98.9 342.3
03/09 11:30 30.9 33 10.51 12.8 11 19 1017.2 0 22.7 24.2 38.7 101.8 100.5 347.8
03/09 11:20 31 34 10.88 13.3 15 24 1017.4 0 23.5 24.7 40.0 105.1 104.5 362.0
03/09 11:10 30.7 31 9.76 11.6 13 20 1017.6 0 21.2 23.2 36.3 95.3 92.4 319.5
03/09 11:00 30.7 34 10.71 13 13 20 1017.7 0 23.1 24.5 39.5 103.9 103.0 356.7
03/09 10:50 30.4 35 10.85 13.2 15 22 1017.8 0 23.4 24.8 40.2 105.6 105.0 363.6
03/09 10:40 29.6 34 10.09 12.1 17 24 1018 0 21.9 24.0 37.9 99.6 97.4 336.9
03/09 10:30 30.3 34 10.48 12.7 13 20 1018 0 22.7 24.3 38.9 102.4 101.0 349.4
03/09 10:20 29.1 38 10.98 13.3 15 22 1018.1 0 23.8 25.4 41.3 108.6 108.3 374.8
03/09 10:10 28.6 39 10.96 13.3 13 24 1018.2 0 23.8 25.5 41.5 109.1 108.7 376.3
03/09 10:00 28.2 43 11.82 14.4 13 19 1018.2 0 25.6 26.9 44.8 118.0 119.5 414.2
03/09 09:50 27.6 46 12.24 14.9 13 24 1018.3 0 26.5 27.7 46.7 123.0 125.6 435.4

Last Refresh: 04-Sep-2026 02:27:16

Bureau of Meteorology